createdAt,value
2023-02-18T00:01:54.141Z,99946.63
2023-02-18T00:04:22.504Z,99954.75
2023-02-18T00:06:50.829Z,99962.65
2023-02-18T00:09:19.123Z,99962.95
2023-02-18T00:11:47.470Z,99967.58
2023-02-18T00:14:17.069Z,99970.50
2023-02-18T00:16:46.749Z,99970.73
2023-02-18T00:19:18.769Z,99972.60
2023-02-18T00:25:18.577Z,99980.87
2023-02-18T00:27:46.966Z,99984.54
2023-02-18T00:30:15.570Z,99989.32
2023-02-18T00:32:44.650Z,99989.16
2023-02-18T00:35:12.987Z,99990.77
2023-02-18T00:37:41.404Z,99996.12
2023-02-18T00:40:10.196Z,99992.95
2023-02-18T00:42:38.580Z,100006.88
2023-02-18T00:45:07.675Z,100008.57
2023-02-18T00:47:35.997Z,100010.09
2023-02-18T00:50:04.759Z,100009.64
2023-02-18T00:52:33.197Z,100007.53
2023-02-18T00:55:01.541Z,100009.33
2023-02-18T00:57:29.902Z,100011.41
2023-02-18T00:59:58.280Z,100018.84
2023-02-18T01:02:26.697Z,100015.08
2023-02-18T01:04:55.136Z,100019.02
2023-02-18T01:07:23.523Z,100027.23
2023-02-18T01:09:51.910Z,100024.91
2023-02-18T01:12:20.341Z,100027.93
2023-02-18T01:14:48.678Z,100021.42
2023-02-18T01:17:17.016Z,100030.52
2023-02-18T01:19:45.344Z,100026.48
2023-02-18T01:22:13.738Z,100028.23
2023-02-18T01:24:42.140Z,100032.14
2023-02-18T01:27:10.436Z,100037.52
2023-02-18T01:29:38.799Z,100039.90
2023-02-18T01:32:07.399Z,100033.60
2023-02-18T01:34:35.811Z,100038.06
2023-02-18T01:37:04.125Z,100039.46
2023-02-18T01:39:32.641Z,100038.13
2023-02-18T01:42:01.021Z,100036.29
2023-02-18T01:44:29.812Z,100038.50
2023-02-18T01:46:58.152Z,100032.64
2023-02-18T01:49:35.878Z,100034.73
2023-02-18T01:52:17.198Z,100033.05
2023-02-18T01:54:52.819Z,100035.77
2023-02-18T01:57:31.244Z,100036.23
2023-02-18T02:00:12.699Z,100037.59
2023-02-18T02:02:45.928Z,100038.92
2023-02-18T02:05:15.309Z,100034.39
2023-02-18T02:07:45.889Z,100028.55
2023-02-18T02:10:16.816Z,100030.30
2023-02-18T02:12:57.226Z,100033.86
2023-02-18T02:15:45.266Z,100027.02
2023-02-18T02:18:47.985Z,100032.63
2023-02-18T02:21:58.106Z,100029.61
2023-02-18T02:25:13.721Z,100026.55
2023-02-18T02:28:34.692Z,100035.48
2023-02-18T02:31:42.964Z,100039.70
2023-02-18T02:34:40.421Z,100046.97
2023-02-18T02:37:25.871Z,100041.51
2023-02-18T02:40:22.514Z,100038.86
2023-02-18T02:43:03.006Z,100036.69
2023-02-18T02:45:49.908Z,100036.44
2023-02-18T02:48:47.894Z,100041.33
2023-02-18T02:52:13.441Z,100048.86
2023-02-18T02:54:41.818Z,100042.88
2023-02-18T02:57:30.525Z,100051.67
2023-02-18T03:00:05.664Z,100048.73
2023-02-18T03:03:06.075Z,100051.36
2023-02-18T03:06:11.107Z,100049.58
2023-02-18T03:08:52.136Z,100053.02
2023-02-18T03:11:20.630Z,100048.39
2023-02-18T03:14:10.446Z,100050.80
2023-02-18T03:16:51.125Z,100054.98
2023-02-18T03:19:45.789Z,100052.31
2023-02-18T03:22:39.968Z,100058.67
2023-02-18T03:25:10.398Z,100052.10
2023-02-18T03:27:51.336Z,100053.05
2023-02-18T03:30:48.206Z,100059.48
2023-02-18T03:33:25.066Z,100062.10
2023-02-18T03:35:56.570Z,100065.27
2023-02-18T03:38:40.390Z,100070.42
2023-02-18T03:41:08.837Z,100071.89
2023-02-18T03:43:37.220Z,100073.13
2023-02-18T03:46:05.658Z,100072.65
2023-02-18T03:48:34.129Z,100073.77
2023-02-18T03:51:02.435Z,100081.14
2023-02-18T03:53:30.812Z,100087.52
2023-02-18T03:55:59.148Z,100085.48
2023-02-18T03:58:27.445Z,100093.44
2023-02-18T04:00:55.842Z,100095.79
2023-02-18T04:03:24.198Z,100101.38
2023-02-18T04:05:52.516Z,100104.77
2023-02-18T04:08:20.998Z,100105.83
2023-02-18T04:10:49.471Z,100110.36
2023-02-18T04:13:18.087Z,100108.10
2023-02-18T04:15:48.907Z,100110.96
2023-02-18T04:18:18.022Z,100118.60
2023-02-18T04:20:46.505Z,100117.80
2023-02-18T04:23:15.275Z,100115.45
2023-02-18T04:25:43.688Z,100120.77
2023-02-18T04:28:15.324Z,100117.48
2023-02-18T04:30:45.213Z,100123.44
2023-02-18T04:33:14.429Z,100127.94
2023-02-18T04:35:42.748Z,100122.98
2023-02-18T04:38:12.119Z,100119.47
2023-02-18T04:40:40.495Z,100116.79
2023-02-18T04:43:08.852Z,100119.64
2023-02-18T04:45:37.202Z,100119.92
2023-02-18T04:48:06.136Z,100115.23
2023-02-18T04:50:35.185Z,100116.02
2023-02-18T04:53:03.554Z,100120.70
2023-02-18T04:55:31.880Z,100117.70
2023-02-18T04:58:00.190Z,100116.63
2023-02-18T05:00:29.305Z,100114.69
2023-02-18T05:02:57.644Z,100119.10
2023-02-18T05:05:26.367Z,100115.42
2023-02-18T05:07:54.698Z,100119.98
2023-02-18T05:10:23.041Z,100117.64
2023-02-18T05:12:51.427Z,100127.48
2023-02-18T05:15:19.764Z,100118.83
2023-02-18T05:17:48.116Z,100117.15
2023-02-18T05:20:16.636Z,100121.38
2023-02-18T05:22:45.122Z,100121.31
2023-02-18T05:25:13.423Z,100122.02
2023-02-18T05:27:41.754Z,100118.96
2023-02-18T05:30:10.715Z,100120.33
2023-02-18T05:32:39.113Z,100124.44
2023-02-18T05:35:08.132Z,100133.36
2023-02-18T05:37:36.519Z,100125.56
2023-02-18T05:40:06.081Z,100129.30
2023-02-18T05:42:34.435Z,100129.05
2023-02-18T05:45:03.485Z,100127.08
2023-02-18T05:47:31.818Z,100128.27
2023-02-18T05:50:00.228Z,100122.16
2023-02-18T05:52:28.598Z,100117.37
2023-02-18T05:54:57.042Z,100126.05
2023-02-18T05:57:25.634Z,100131.95
2023-02-18T05:59:53.989Z,100137.44
2023-02-18T06:02:22.434Z,100140.35
2023-02-18T06:04:51.002Z,100132.35
2023-02-18T06:07:20.654Z,100130.34
2023-02-18T06:09:49.008Z,100133.63
2023-02-18T06:12:17.342Z,100143.33
2023-02-18T06:14:46.168Z,100146.48
2023-02-18T06:17:15.767Z,100148.00
2023-02-18T06:19:45.441Z,100151.81
2023-02-18T06:22:13.957Z,100146.75
2023-02-18T06:24:42.310Z,100151.29
2023-02-18T06:27:10.732Z,100144.02
2023-02-18T06:29:39.049Z,100142.64
2023-02-18T06:32:07.441Z,100147.11
2023-02-18T06:34:35.792Z,100144.56
2023-02-18T06:37:04.135Z,100146.30
2023-02-18T06:39:32.576Z,100145.22
2023-02-18T06:42:02.428Z,100141.02
2023-02-18T06:44:30.797Z,100148.79
2023-02-18T06:47:00.105Z,100149.23
2023-02-18T06:49:28.505Z,100147.15
2023-02-18T06:51:56.894Z,100150.69
2023-02-18T06:54:25.374Z,100151.29
2023-02-18T06:56:53.910Z,100152.59
2023-02-18T06:59:22.278Z,100155.98
2023-02-18T07:01:50.644Z,100153.20
2023-02-18T07:04:18.916Z,100161.46
2023-02-18T07:06:47.232Z,100153.04
2023-02-18T07:09:16.870Z,100153.64
2023-02-18T07:11:47.364Z,100159.13
2023-02-18T07:14:15.674Z,100162.62
2023-02-18T07:16:44.139Z,100162.25
2023-02-18T07:19:14.854Z,100165.92
2023-02-18T07:21:43.627Z,100158.33
2023-02-18T07:24:12.251Z,100158.41
2023-02-18T07:26:40.943Z,100163.39
2023-02-18T07:29:09.400Z,100162.78
2023-02-18T07:31:38.822Z,100156.96
2023-02-18T07:34:07.262Z,100163.41
2023-02-18T07:36:35.726Z,100158.10
2023-02-18T07:39:04.449Z,100161.39
2023-02-18T07:41:32.916Z,100165.90
2023-02-18T07:44:01.254Z,100166.39
2023-02-18T07:46:29.761Z,100164.60
2023-02-18T07:48:58.427Z,100168.57
2023-02-18T07:51:26.902Z,100171.41
2023-02-18T07:53:56.997Z,100167.63
2023-02-18T07:56:25.422Z,100178.27
2023-02-18T07:58:53.894Z,100180.35
2023-02-18T08:01:22.332Z,100175.55
2023-02-18T08:03:50.839Z,100173.02
2023-02-18T08:06:37.700Z,100169.75
2023-02-18T08:09:07.267Z,100171.55
2023-02-18T08:11:36.084Z,100173.14
2023-02-18T08:14:17.321Z,100172.54
2023-02-18T08:16:46.839Z,100165.13
2023-02-18T08:19:15.201Z,100172.27
2023-02-18T08:21:43.515Z,100171.36
2023-02-18T08:24:11.988Z,100179.25
2023-02-18T08:26:48.685Z,100176.03
2023-02-18T08:29:27.752Z,100181.42
2023-02-18T08:31:59.583Z,100182.83
2023-02-18T08:34:27.971Z,100181.62
2023-02-18T08:36:56.940Z,100178.71
2023-02-18T08:39:25.255Z,100178.11
2023-02-18T08:41:54.704Z,100171.91
2023-02-18T08:44:22.999Z,100175.86
2023-02-18T08:46:53.089Z,100167.25
2023-02-18T08:49:24.057Z,100169.70
2023-02-18T08:51:52.483Z,100162.33
2023-02-18T08:54:20.936Z,100166.45
2023-02-18T08:56:49.488Z,100187.80
2023-02-18T08:59:17.868Z,100182.77
2023-02-18T09:01:46.344Z,100172.95
2023-02-18T09:04:14.704Z,100170.36
2023-02-18T09:06:43.283Z,100179.73
2023-02-18T09:09:11.597Z,100177.13
2023-02-18T09:11:40.203Z,100195.64
2023-02-18T09:14:08.846Z,100186.84
2023-02-18T09:16:38.462Z,100182.77
2023-02-18T09:19:07.290Z,100174.61
2023-02-18T09:21:35.728Z,100175.82
2023-02-18T09:24:04.378Z,100177.23
2023-02-18T09:26:33.117Z,100166.95
2023-02-18T09:29:01.778Z,100169.11
2023-02-18T09:31:30.760Z,100170.84
2023-02-18T09:34:02.585Z,100173.20
2023-02-18T09:36:31.101Z,100174.30
2023-02-18T09:38:59.890Z,100175.22
2023-02-18T09:41:48.581Z,100174.92
2023-02-18T09:44:30.121Z,100169.42
2023-02-18T09:47:44.437Z,100164.14
2023-02-18T09:50:35.397Z,100158.49
2023-02-18T09:53:04.424Z,100156.05
2023-02-18T09:55:39.326Z,100157.80
2023-02-18T09:58:34.836Z,100150.59
2023-02-18T10:01:12.326Z,100149.48
2023-02-18T10:03:41.176Z,100146.54
2023-02-18T10:06:18.157Z,100149.39
2023-02-18T10:08:50.867Z,100137.23
2023-02-18T10:11:30.616Z,100146.70
2023-02-18T10:14:02.741Z,100142.09
2023-02-18T10:16:31.441Z,100139.94
2023-02-18T10:19:05.939Z,100137.79
2023-02-18T10:21:36.219Z,100136.54
2023-02-18T10:24:29.130Z,100129.98
2023-02-18T10:26:58.744Z,100121.53
2023-02-18T10:29:29.335Z,100115.96
2023-02-18T10:32:28.253Z,100113.19
2023-02-18T10:35:17.651Z,100111.08
2023-02-18T10:38:20.922Z,100114.27
2023-02-18T10:41:08.468Z,100105.64
2023-02-18T10:43:49.798Z,100102.13
2023-02-18T10:47:17.489Z,100090.92
2023-02-18T10:49:59.622Z,100080.82
2023-02-18T10:52:43.418Z,100071.66
2023-02-18T10:55:18.700Z,100059.77
2023-02-18T10:57:52.681Z,100058.96
2023-02-18T11:00:33.370Z,100051.17
2023-02-18T11:03:26.041Z,100044.14
2023-02-18T11:05:58.954Z,100040.04
2023-02-18T11:08:37.563Z,100036.64
2023-02-18T11:11:25.524Z,100027.86
2023-02-18T11:13:57.444Z,100024.55
2023-02-18T11:16:42.252Z,100020.17
2023-02-18T11:19:35.515Z,100013.86
2023-02-18T11:22:33.301Z,100011.61
2023-02-18T11:25:04.924Z,100005.66
2023-02-18T11:27:43.977Z,100001.80
2023-02-18T11:30:39.087Z,99994.79
2023-02-18T11:33:24.504Z,99997.03
2023-02-18T11:35:56.203Z,99987.41
2023-02-18T11:38:35.316Z,99971.52
2023-02-18T11:41:11.520Z,99961.16
2023-02-18T11:43:48.361Z,99959.59
2023-02-18T11:46:28.150Z,99952.18
2023-02-18T11:49:22.159Z,99942.52
2023-02-18T11:51:51.700Z,99936.11
2023-02-18T11:54:27.894Z,99925.89
2023-02-18T11:57:05.742Z,99913.58
2023-02-18T11:59:38.251Z,99909.30
2023-02-18T12:02:40.054Z,99893.11
2023-02-18T12:05:25.498Z,99886.19
2023-02-18T12:08:05.200Z,99883.31
2023-02-18T12:11:08.987Z,99879.41
2023-02-18T12:14:23.037Z,99875.85
2023-02-18T12:17:19.694Z,99859.58
2023-02-18T12:20:37.693Z,99852.47
2023-02-18T12:23:38.398Z,99848.27
2023-02-18T12:26:24.957Z,99834.59
2023-02-18T12:29:26.630Z,99823.83
2023-02-18T12:32:54.477Z,99819.77
2023-02-18T12:36:11.487Z,99811.74
2023-02-18T12:38:46.144Z,99816.16
2023-02-18T12:41:44.308Z,99800.55
2023-02-18T12:44:37.369Z,99782.41
2023-02-18T12:47:34.189Z,99783.61
2023-02-18T12:50:23.636Z,99766.17
2023-02-18T12:53:05.690Z,99764.73
2023-02-18T12:56:47.488Z,99769.14
2023-02-18T13:00:01.081Z,99757.06
2023-02-18T13:03:05.439Z,99736.19
2023-02-18T13:06:01.846Z,99720.42
2023-02-18T13:09:31.178Z,99708.95
2023-02-18T13:12:31.014Z,99707.52
2023-02-18T13:15:34.098Z,99705.91
2023-02-18T13:18:10.713Z,99690.29
2023-02-18T13:20:58.076Z,99678.78
2023-02-18T13:23:37.944Z,99677.38
2023-02-18T13:26:14.897Z,99663.80
2023-02-18T13:29:01.082Z,99653.73
2023-02-18T13:32:03.331Z,99641.25
2023-02-18T13:34:41.798Z,99629.33
2023-02-18T13:37:57.464Z,99622.17
2023-02-18T13:40:30.651Z,99615.50
2023-02-18T13:43:38.036Z,99602.32
2023-02-18T13:46:17.555Z,99604.12
2023-02-18T13:48:52.373Z,99598.98
2023-02-18T13:51:41.830Z,99591.09
2023-02-18T13:54:13.213Z,99590.46
2023-02-18T13:56:57.725Z,99589.54
2023-02-18T13:59:47.891Z,99582.88
2023-02-18T14:02:25.685Z,99577.70
2023-02-18T14:05:16.151Z,99565.71
2023-02-18T14:08:06.542Z,99560.86
2023-02-18T14:10:36.948Z,99557.55
2023-02-18T14:13:40.328Z,99555.60
2023-02-18T14:16:11.288Z,99548.98
2023-02-18T14:18:39.593Z,99540.08
2023-02-18T14:21:14.072Z,99534.93
2023-02-18T14:23:51.612Z,99529.61
2023-02-18T14:26:30.933Z,99514.77
2023-02-18T14:29:19.977Z,99508.96
2023-02-18T14:31:55.204Z,99501.22
2023-02-18T14:34:23.518Z,99491.46
2023-02-18T14:37:23.071Z,99484.27
2023-02-18T14:40:12.182Z,99480.42
2023-02-18T14:43:23.047Z,99476.98
2023-02-18T14:46:13.044Z,99472.23
2023-02-18T14:49:28.193Z,99465.38
2023-02-18T14:51:57.966Z,99468.39
2023-02-18T14:54:29.783Z,99463.98
2023-02-18T14:57:06.361Z,99461.38
2023-02-18T14:59:40.033Z,99458.81
2023-02-18T15:02:38.570Z,99459.01
2023-02-18T15:05:38.198Z,99465.13
2023-02-18T15:08:21.322Z,99462.98
2023-02-18T15:11:08.268Z,99463.96
2023-02-18T15:13:45.523Z,99472.15
2023-02-18T15:16:37.160Z,99474.06
2023-02-18T15:19:13.617Z,99474.65
2023-02-18T15:21:46.176Z,99481.28
2023-02-18T15:24:34.353Z,99474.19
2023-02-18T15:27:19.891Z,99469.47
2023-02-18T15:29:56.720Z,99467.69
2023-02-18T15:32:29.012Z,99468.60
2023-02-18T15:35:13.672Z,99467.88
2023-02-18T15:37:46.716Z,99470.60
2023-02-18T15:40:16.508Z,99469.17
2023-02-18T15:42:52.872Z,99463.69
2023-02-18T15:45:33.187Z,99472.19
2023-02-18T15:48:02.437Z,99472.77
2023-02-18T15:50:45.099Z,99466.81
2023-02-18T15:53:18.934Z,99469.09
2023-02-18T15:55:53.938Z,99463.89
2023-02-18T15:58:32.904Z,99453.69
2023-02-18T16:01:08.117Z,99452.58
2023-02-18T16:03:39.524Z,99439.23
2023-02-18T16:06:25.292Z,99441.79
2023-02-18T16:09:07.954Z,99444.22
2023-02-18T16:11:43.316Z,99445.05
2023-02-18T16:14:50.095Z,99453.48
2023-02-18T16:17:22.462Z,99439.55
2023-02-18T16:20:16.492Z,99443.96
2023-02-18T16:22:54.771Z,99443.92
2023-02-18T16:25:44.689Z,99449.83
2023-02-18T16:28:23.715Z,99459.14
2023-02-18T16:30:52.074Z,99442.71
2023-02-18T16:33:20.404Z,99438.86
2023-02-18T16:35:50.737Z,99459.63
2023-02-18T16:38:23.110Z,99453.23
2023-02-18T16:40:54.577Z,99460.98
2023-02-18T16:43:27.430Z,99450.42
2023-02-18T16:45:59.077Z,99461.48
2023-02-18T16:48:32.755Z,99471.04
2023-02-18T16:51:07.853Z,99468.09
2023-02-18T16:53:36.555Z,99466.98
2023-02-18T16:56:06.264Z,99472.09
2023-02-18T16:58:34.657Z,99469.36
2023-02-18T17:01:03.606Z,99469.08
2023-02-18T17:03:32.014Z,99479.20
2023-02-18T17:06:00.451Z,99474.52
2023-02-18T17:08:29.053Z,99474.40
2023-02-18T17:10:58.722Z,99468.90
2023-02-18T17:13:29.775Z,99460.02
2023-02-18T17:15:59.011Z,99461.66
2023-02-18T17:18:27.462Z,99471.60
2023-02-18T17:20:57.147Z,99481.38
2023-02-18T17:23:25.708Z,99480.15
2023-02-18T17:25:54.102Z,99487.06
2023-02-18T17:28:23.161Z,99494.17
2023-02-18T17:30:57.965Z,99489.21
2023-02-18T17:33:26.437Z,99495.07
2023-02-18T17:35:54.995Z,99509.02
2023-02-18T17:38:23.730Z,99506.05
2023-02-18T17:40:52.107Z,99530.34
2023-02-18T17:43:20.546Z,99522.99
2023-02-18T17:45:55.389Z,99524.08
2023-02-18T17:48:25.113Z,99523.52
2023-02-18T17:50:53.753Z,99528.21
2023-02-18T17:53:22.668Z,99526.14
2023-02-18T17:55:51.840Z,99518.01
2023-02-18T17:58:20.412Z,99532.23
2023-02-18T18:00:57.326Z,99539.19
2023-02-18T18:03:25.700Z,99528.02
2023-02-18T18:05:54.549Z,99551.73
2023-02-18T18:08:23.152Z,99548.65
2023-02-18T18:10:58.651Z,99549.85
2023-02-18T18:13:32.261Z,99558.95
2023-02-18T18:16:01.260Z,99555.92
2023-02-18T18:18:29.826Z,99568.37
2023-02-18T18:21:01.384Z,99572.23
2023-02-18T18:23:30.491Z,99554.55
2023-02-18T18:26:00.131Z,99553.25
2023-02-18T18:28:28.750Z,99575.42
2023-02-18T18:30:57.703Z,99574.70
2023-02-18T18:33:30.897Z,99581.72
2023-02-18T18:36:01.374Z,99564.50
2023-02-18T18:38:30.142Z,99574.52
2023-02-18T18:40:58.705Z,99584.26
2023-02-18T18:43:32.894Z,99586.94
2023-02-18T18:46:01.617Z,99595.81
2023-02-18T18:48:30.143Z,99597.70
2023-02-18T18:51:00.592Z,99589.06
2023-02-18T18:53:33.770Z,99596.93
2023-02-18T18:56:06.683Z,99613.68
2023-02-18T18:58:35.214Z,99603.21
2023-02-18T19:01:05.526Z,99607.79
2023-02-18T19:03:35.449Z,99628.92
2023-02-18T19:06:04.165Z,99627.95
2023-02-18T19:08:33.401Z,99630.40
2023-02-18T19:11:02.309Z,99648.50
2023-02-18T19:13:33.457Z,99663.34
2023-02-18T19:16:11.717Z,99655.84
2023-02-18T19:18:40.256Z,99665.65
2023-02-18T19:21:09.066Z,99661.23
2023-02-18T19:23:37.898Z,99676.17
2023-02-18T19:26:07.681Z,99687.47
2023-02-18T19:28:36.390Z,99698.05
2023-02-18T19:31:11.550Z,99709.19
2023-02-18T19:33:40.411Z,99718.79
2023-02-18T19:36:11.284Z,99725.85
2023-02-18T19:38:39.613Z,99728.49
2023-02-18T19:41:13.044Z,99736.15
2023-02-18T19:43:42.868Z,99735.09
2023-02-18T19:46:16.589Z,99740.38
2023-02-18T19:48:50.531Z,99752.23
2023-02-18T19:51:21.267Z,99749.92
2023-02-18T19:53:49.737Z,99757.66
2023-02-18T19:56:18.660Z,99742.79
2023-02-18T19:58:47.108Z,99772.16
2023-02-18T20:01:17.550Z,99778.55
2023-02-18T20:03:47.201Z,99786.40
2023-02-18T20:06:18.499Z,99786.71
2023-02-18T20:08:47.637Z,99788.73
2023-02-18T20:11:16.394Z,99786.48
2023-02-18T20:13:44.716Z,99799.52
2023-02-18T20:16:13.117Z,99812.47
2023-02-18T20:18:41.452Z,99816.82
2023-02-18T20:21:12.200Z,99821.10
2023-02-18T20:23:41.204Z,99828.25
2023-02-18T20:26:11.794Z,99823.54
2023-02-18T20:28:40.734Z,99828.25
2023-02-18T20:31:12.779Z,99831.08
2023-02-18T20:33:44.839Z,99839.03
2023-02-18T20:36:14.408Z,99846.30
2023-02-18T20:38:42.985Z,99847.09
2023-02-18T20:41:17.538Z,99853.94
2023-02-18T20:43:47.307Z,99857.66
2023-02-18T20:46:21.858Z,99869.11
2023-02-18T20:48:50.974Z,99875.16
2023-02-18T20:51:21.887Z,99870.31
2023-02-18T20:53:51.452Z,99870.81
2023-02-18T20:56:21.606Z,99871.18
2023-02-18T20:58:51.288Z,99872.33
2023-02-18T21:01:20.237Z,99874.13
2023-02-18T21:03:49.566Z,99873.07
2023-02-18T21:06:22.089Z,99880.17
2023-02-18T21:08:53.059Z,99878.02
2023-02-18T21:11:25.517Z,99883.66
2023-02-18T21:13:56.416Z,99888.98
2023-02-18T21:16:26.831Z,99895.42
2023-02-18T21:18:55.876Z,99898.04
2023-02-18T21:21:24.865Z,99904.40
2023-02-18T21:23:53.633Z,99906.20
2023-02-18T21:26:25.009Z,99912.88
2023-02-18T21:28:57.334Z,99909.81
2023-02-18T21:31:32.669Z,99910.03
2023-02-18T21:34:01.229Z,99908.10
2023-02-18T21:36:31.790Z,99913.13
2023-02-18T21:39:05.085Z,99919.28
2023-02-18T21:41:35.327Z,99922.16
2023-02-18T21:44:03.978Z,99933.02
2023-02-18T21:46:34.496Z,99932.13
2023-02-18T21:49:12.457Z,99935.52
2023-02-18T21:52:05.427Z,99936.89
2023-02-18T21:54:42.640Z,99944.81
2023-02-18T21:57:14.994Z,99946.16
2023-02-18T21:59:45.388Z,99948.66
2023-02-18T22:02:34.176Z,99948.00
2023-02-18T22:05:02.829Z,99950.69
2023-02-18T22:07:31.117Z,99952.90
2023-02-18T22:09:59.554Z,99949.94
2023-02-18T22:12:27.984Z,99949.02
2023-02-18T22:14:56.259Z,99967.98
2023-02-18T22:17:24.631Z,99972.67
2023-02-18T22:19:53.059Z,99969.13
2023-02-18T22:22:21.447Z,99971.77
2023-02-18T22:24:50.935Z,99973.73
2023-02-18T22:27:19.520Z,99975.40
2023-02-18T22:29:47.926Z,99974.58
2023-02-18T22:32:16.322Z,99982.42
2023-02-18T22:34:44.767Z,99984.35
2023-02-18T22:37:13.089Z,99988.48
2023-02-18T22:39:41.617Z,99984.48
2023-02-18T22:42:10.045Z,99985.73
2023-02-18T22:44:39.675Z,99985.20
2023-02-18T22:47:08.092Z,99988.17
2023-02-18T22:49:36.611Z,99985.81
2023-02-18T22:52:05.271Z,99986.12
2023-02-18T22:54:33.840Z,99982.59
2023-02-18T22:57:02.533Z,99988.77
2023-02-18T22:59:31.056Z,99992.23
2023-02-18T23:01:59.568Z,99996.14
2023-02-18T23:04:28.465Z,99994.02
2023-02-18T23:06:57.072Z,99991.44
2023-02-18T23:09:26.221Z,99994.60
2023-02-18T23:11:58.121Z,100001.59
2023-02-18T23:14:28.199Z,100006.94
2023-02-18T23:17:14.290Z,100006.65
2023-02-18T23:19:48.807Z,100002.00
2023-02-18T23:22:24.610Z,100005.67
2023-02-18T23:24:53.344Z,100006.40
2023-02-18T23:27:23.237Z,100009.23
2023-02-18T23:29:53.122Z,100010.23
2023-02-18T23:32:21.464Z,100010.06
2023-02-18T23:34:51.625Z,100004.66
2023-02-18T23:37:41.723Z,100007.34
2023-02-18T23:40:13.773Z,100000.20
2023-02-18T23:42:42.136Z,100007.34
2023-02-18T23:45:10.469Z,100006.59
2023-02-18T23:47:38.770Z,100011.27
2023-02-18T23:50:07.374Z,100010.04
2023-02-18T23:52:35.780Z,100008.80
2023-02-18T23:55:04.405Z,100013.30
2023-02-18T23:57:33.088Z,100010.71
